createdAt,value
2022-09-03T04:22:40.769Z,1003.84
2022-09-03T04:23:41.744Z,1003.83
2022-09-03T04:24:44.069Z,1003.82
2022-09-03T04:25:45.058Z,1003.80
2022-09-03T04:26:47.186Z,1003.77
2022-09-03T04:27:49.446Z,1003.78
2022-09-03T04:28:51.606Z,1003.80
2022-09-03T04:29:53.917Z,1003.75
2022-09-03T04:30:55.006Z,1003.78
2022-09-03T04:31:55.994Z,1003.77
2022-09-03T04:32:58.219Z,1003.84
2022-09-03T04:34:00.391Z,1003.86
2022-09-03T04:35:01.429Z,1003.88
2022-09-03T04:36:03.545Z,1003.85
2022-09-03T04:37:04.501Z,1003.87
2022-09-03T04:38:05.513Z,1003.85
2022-09-03T04:39:06.608Z,1003.87
2022-09-03T04:40:08.724Z,1003.86
2022-09-03T04:41:10.846Z,1003.92
2022-09-03T04:42:11.889Z,1003.87
2022-09-03T04:43:12.883Z,1003.84
2022-09-03T04:44:15.008Z,1003.87
2022-09-03T04:45:16.197Z,1003.87
2022-09-03T04:46:18.390Z,1003.90
2022-09-03T04:47:18.660Z,1003.92
2022-09-03T04:48:20.871Z,1003.95
2022-09-03T04:49:23.026Z,1003.94
2022-09-03T04:50:25.144Z,1003.91
2022-09-03T04:51:27.271Z,1003.92
2022-09-03T04:52:29.397Z,1003.93
2022-09-03T04:53:30.668Z,1003.95
2022-09-03T04:54:31.722Z,1003.96
2022-09-03T04:55:33.842Z,1003.95
2022-09-03T04:56:35.970Z,1003.93
2022-09-03T04:57:37.150Z,1003.95
2022-09-03T04:58:39.312Z,1003.97
2022-09-03T04:59:40.682Z,1003.99
2022-09-03T05:00:42.875Z,1004.02
2022-09-03T05:01:45.254Z,1003.99
2022-09-03T05:02:46.249Z,1004.02
2022-09-03T05:03:48.371Z,1003.95
2022-09-03T05:04:50.491Z,1003.97
2022-09-03T05:05:52.638Z,1003.96
2022-09-03T05:06:54.779Z,1003.93
2022-09-03T05:07:56.904Z,1003.94
2022-09-03T05:08:59.027Z,1003.95
2022-09-03T05:10:01.150Z,1003.92
2022-09-03T05:11:02.867Z,1003.93
2022-09-03T05:12:03.812Z,1003.93
2022-09-03T05:13:11.525Z,1003.90
2022-09-03T05:14:06.641Z,1003.95
2022-09-03T05:15:08.876Z,1003.93
2022-09-03T05:16:11.156Z,1003.95
2022-09-03T05:17:12.154Z,1003.96
2022-09-03T05:18:14.722Z,1003.97
2022-09-03T05:19:15.785Z,1003.95
2022-09-03T05:20:17.905Z,1003.99
2022-09-03T05:21:20.036Z,1003.99
2022-09-03T05:22:22.170Z,1003.99
2022-09-03T05:23:24.361Z,1003.99
2022-09-03T05:24:26.480Z,1003.97
2022-09-03T05:25:27.537Z,1004.00
2022-09-03T05:26:28.721Z,1004.00
2022-09-03T05:27:30.857Z,1003.96
2022-09-03T05:28:33.057Z,1003.97
2022-09-03T05:29:35.142Z,1003.97
2022-09-03T05:30:36.324Z,1003.96
2022-09-03T05:31:38.508Z,1003.98
2022-09-03T05:32:40.866Z,1004.01
2022-09-03T05:33:41.823Z,1004.04
2022-09-03T05:34:44.072Z,1004.05
2022-09-03T05:35:46.213Z,1004.03
2022-09-03T05:36:48.396Z,1004.04
2022-09-03T05:37:50.479Z,1004.06
2022-09-03T05:38:52.605Z,1004.06
2022-09-03T05:39:54.817Z,1004.06
2022-09-03T05:40:57.006Z,1004.02
2022-09-03T05:41:59.341Z,1003.99
2022-09-03T05:43:00.295Z,1004.03
2022-09-03T05:44:02.422Z,1004.03
2022-09-03T05:45:04.552Z,1004.08
2022-09-03T05:46:05.805Z,1004.09
2022-09-03T05:47:07.955Z,1004.03
2022-09-03T05:48:10.075Z,1004.02
2022-09-03T05:49:12.195Z,1004.06
2022-09-03T05:50:14.316Z,1004.02
2022-09-03T05:51:16.502Z,1003.95
2022-09-03T05:52:17.501Z,1003.99
2022-09-03T05:53:19.672Z,1004.02
2022-09-03T05:54:21.817Z,1004.01
2022-09-03T05:55:23.990Z,1004.04
2022-09-03T05:56:24.948Z,1004.04
2022-09-03T05:57:27.084Z,1004.00
2022-09-03T05:58:29.210Z,1003.98
2022-09-03T05:59:31.335Z,1004.02
2022-09-03T06:00:33.473Z,1004.00
2022-09-03T06:01:35.625Z,1004.02
2022-09-03T06:02:36.699Z,1004.00
2022-09-03T06:03:37.893Z,1004.03
2022-09-03T06:04:39.079Z,1004.08
2022-09-03T06:05:41.168Z,1004.10
2022-09-03T06:06:43.298Z,1004.10
2022-09-03T06:07:44.495Z,1004.13
2022-09-03T06:08:46.614Z,1004.11
2022-09-03T06:09:48.765Z,1004.12
2022-09-03T06:10:50.889Z,1004.14
2022-09-03T06:11:52.593Z,1004.11
2022-09-03T06:12:53.942Z,1004.14
2022-09-03T06:13:56.090Z,1004.07
2022-09-03T06:14:57.274Z,1004.11
2022-09-03T06:15:58.281Z,1004.08
2022-09-03T06:16:59.537Z,1004.13
2022-09-03T06:18:01.695Z,1004.12
2022-09-03T06:19:02.655Z,1004.14
2022-09-03T06:20:03.615Z,1004.14
2022-09-03T06:21:05.736Z,1004.16
2022-09-03T06:22:07.851Z,1004.14
2022-09-03T06:23:10.011Z,1004.14
2022-09-03T06:24:12.210Z,1004.13
2022-09-03T06:25:14.398Z,1004.12
2022-09-03T06:26:16.760Z,1004.11
2022-09-03T06:27:17.807Z,1004.16
2022-09-03T06:28:18.760Z,1004.16
2022-09-03T06:29:20.744Z,1004.14
2022-09-03T06:30:22.870Z,1004.20
2022-09-03T06:31:25.187Z,1004.15
2022-09-03T06:32:26.257Z,1004.16
2022-09-03T06:33:28.500Z,1004.19
2022-09-03T06:34:30.624Z,1004.14
2022-09-03T06:35:35.823Z,1004.21
2022-09-03T06:36:35.002Z,1004.19
2022-09-03T06:37:35.977Z,1004.18
2022-09-03T06:38:38.150Z,1004.22
2022-09-03T06:39:39.470Z,1004.16
2022-09-03T06:40:41.631Z,1004.15
2022-09-03T06:41:43.766Z,1004.16
2022-09-03T06:42:46.174Z,1004.18
2022-09-03T06:43:47.652Z,1004.19
2022-09-03T06:44:54.834Z,1004.19
2022-09-03T06:45:50.002Z,1004.18
2022-09-03T06:46:52.198Z,1004.24
2022-09-03T06:47:54.319Z,1004.19
2022-09-03T06:48:56.447Z,1004.24
2022-09-03T06:49:58.620Z,1004.21
2022-09-03T06:50:59.570Z,1004.22
2022-09-03T06:52:01.694Z,1004.24
2022-09-03T06:53:03.819Z,1004.21
2022-09-03T06:54:06.037Z,1004.25
2022-09-03T06:55:07.061Z,1004.21
2022-09-03T06:56:09.259Z,1004.21
2022-09-03T06:57:10.328Z,1004.24
2022-09-03T06:58:12.415Z,1004.25
2022-09-03T06:59:14.608Z,1004.19
2022-09-03T07:00:16.738Z,1004.18
2022-09-03T07:01:19.199Z,1004.21
2022-09-03T07:02:20.490Z,1004.23
2022-09-03T07:03:22.655Z,1004.21
2022-09-03T07:04:24.902Z,1004.27
2022-09-03T07:05:25.865Z,1004.28
2022-09-03T07:06:28.000Z,1004.23
2022-09-03T07:07:30.141Z,1004.26
2022-09-03T07:08:32.271Z,1004.28
2022-09-03T07:09:34.456Z,1004.28
2022-09-03T07:10:35.430Z,1004.27
2022-09-03T07:11:36.874Z,1004.32
2022-09-03T07:12:37.942Z,1004.26
2022-09-03T07:13:38.953Z,1004.26
2022-09-03T07:14:41.103Z,1004.28
2022-09-03T07:15:42.805Z,1004.27
2022-09-03T07:16:43.795Z,1004.26
2022-09-03T07:17:45.960Z,1004.32
2022-09-03T07:18:48.544Z,1004.29
2022-09-03T07:19:49.732Z,1004.33
2022-09-03T07:20:51.498Z,1004.33
2022-09-03T07:21:52.503Z,1004.31
2022-09-03T07:22:54.623Z,1004.35
2022-09-03T07:23:56.757Z,1004.37
2022-09-03T07:24:58.872Z,1004.31
2022-09-03T07:26:01.000Z,1004.36
2022-09-03T07:27:03.126Z,1004.38
2022-09-03T07:28:05.256Z,1004.37
2022-09-03T07:29:06.346Z,1004.32
2022-09-03T07:30:08.547Z,1004.32
2022-09-03T07:31:09.565Z,1004.35
2022-09-03T07:32:11.802Z,1004.27
2022-09-03T07:33:12.812Z,1004.29
2022-09-03T07:34:14.941Z,1004.24
2022-09-03T07:35:17.060Z,1004.25
2022-09-03T07:36:24.405Z,1004.17
2022-09-03T07:37:19.773Z,1004.20
2022-09-03T07:38:21.896Z,1004.21
2022-09-03T07:39:24.162Z,1004.19
2022-09-03T07:40:25.178Z,1004.26
2022-09-03T07:41:28.351Z,1004.27
2022-09-03T07:42:28.922Z,1004.25
2022-09-03T07:43:31.043Z,1004.26
2022-09-03T07:44:33.252Z,1004.25
2022-09-03T07:45:34.209Z,1004.32
2022-09-03T07:46:36.419Z,1004.26
2022-09-03T07:47:37.425Z,1004.30
2022-09-03T07:48:39.567Z,1004.29
2022-09-03T07:49:41.701Z,1004.32
2022-09-03T07:50:43.878Z,1004.29
2022-09-03T07:51:44.837Z,1004.31
2022-09-03T07:52:46.969Z,1004.30
2022-09-03T07:53:49.088Z,1004.34
2022-09-03T07:54:51.211Z,1004.26
2022-09-03T07:55:53.373Z,1004.31
2022-09-03T07:56:55.491Z,1004.27
2022-09-03T07:57:57.415Z,1004.30
2022-09-03T07:58:59.570Z,1004.30
2022-09-03T08:00:01.686Z,1004.32
2022-09-03T08:01:03.905Z,1004.33
2022-09-03T08:02:04.898Z,1004.32
2022-09-03T08:03:07.036Z,1004.27
2022-09-03T08:04:09.618Z,1004.21
2022-09-03T08:05:11.004Z,1004.23
2022-09-03T08:06:13.123Z,1004.17
2022-09-03T08:07:15.245Z,1004.23
2022-09-03T08:08:17.368Z,1004.24
2022-09-03T08:09:19.844Z,1004.27
2022-09-03T08:10:20.812Z,1004.30
2022-09-03T08:11:22.934Z,1004.29
2022-09-03T08:12:23.946Z,1004.31
2022-09-03T08:13:24.955Z,1004.29
2022-09-03T08:14:26.894Z,1004.29
2022-09-03T08:15:27.853Z,1004.31
2022-09-03T08:16:28.894Z,1004.30
2022-09-03T08:17:29.907Z,1004.33
2022-09-03T08:18:32.126Z,1004.31
2022-09-03T08:19:33.724Z,1004.29
2022-09-03T08:20:36.095Z,1004.22
2022-09-03T08:21:37.074Z,1004.22
2022-09-03T08:22:39.354Z,1004.21
2022-09-03T08:23:41.485Z,1004.20
2022-09-03T08:24:43.731Z,1004.23
2022-09-03T08:25:44.691Z,1004.25
2022-09-03T08:26:51.707Z,1004.21
2022-09-03T08:27:48.117Z,1004.24
2022-09-03T08:28:49.041Z,1004.24
2022-09-03T08:29:51.206Z,1004.27
2022-09-03T08:30:53.329Z,1004.24
2022-09-03T08:31:55.528Z,1004.26
2022-09-03T08:32:56.580Z,1004.25
2022-09-03T08:33:58.697Z,1004.28
2022-09-03T08:34:59.742Z,1004.20
2022-09-03T08:36:01.869Z,1004.21
2022-09-03T08:37:02.859Z,1004.25
2022-09-03T08:38:03.816Z,1004.24
2022-09-03T08:39:04.786Z,1004.24
2022-09-03T08:40:05.867Z,1004.24
2022-09-03T08:41:06.989Z,1004.22
2022-09-03T08:42:07.938Z,1004.21
2022-09-03T08:43:10.062Z,1004.21
2022-09-03T08:44:12.193Z,1004.21
2022-09-03T08:45:14.368Z,1004.21
2022-09-03T08:46:16.163Z,1004.21
2022-09-03T08:47:18.333Z,1004.24
2022-09-03T08:48:25.130Z,1004.27
2022-09-03T08:49:21.710Z,1004.26
2022-09-03T08:50:23.876Z,1004.23
2022-09-03T08:51:26.098Z,1004.17
2022-09-03T08:52:28.225Z,1004.22
2022-09-03T08:53:30.354Z,1004.26
2022-09-03T08:54:32.614Z,1004.24
2022-09-03T08:55:34.734Z,1004.23
2022-09-03T08:56:35.688Z,1004.27
2022-09-03T08:57:37.807Z,1004.28
2022-09-03T08:58:39.940Z,1004.27
2022-09-03T08:59:40.919Z,1004.23
2022-09-03T09:00:43.094Z,1004.21
2022-09-03T09:01:45.401Z,1004.18
2022-09-03T09:02:46.498Z,1004.21
2022-09-03T09:03:47.733Z,1004.21
2022-09-03T09:04:49.890Z,1004.17
2022-09-03T09:05:51.179Z,1004.17
2022-09-03T09:06:59.364Z,1004.15
2022-09-03T09:07:54.555Z,1004.11
2022-09-03T09:08:56.675Z,1004.16
2022-09-03T09:09:58.848Z,1004.13
2022-09-03T09:11:00.977Z,1004.12
2022-09-03T09:12:03.143Z,1004.15
2022-09-03T09:13:04.303Z,1004.11
2022-09-03T09:14:06.455Z,1004.05
2022-09-03T09:15:08.573Z,1004.06
2022-09-03T09:16:10.802Z,1004.06
2022-09-03T09:17:12.955Z,1004.04
2022-09-03T09:18:15.074Z,1003.99
2022-09-03T09:19:16.618Z,1003.94
2022-09-03T09:20:18.743Z,1003.97
2022-09-03T09:21:22.069Z,1003.95
2022-09-03T09:22:21.315Z,1003.89
2022-09-03T09:23:23.451Z,1003.90
2022-09-03T09:24:24.696Z,1003.91
2022-09-03T09:25:26.860Z,1003.91
2022-09-03T09:26:28.984Z,1003.95
2022-09-03T09:27:30.127Z,1003.85
2022-09-03T09:28:32.316Z,1003.86
2022-09-03T09:29:34.477Z,1003.91
2022-09-03T09:30:36.619Z,1003.88
2022-09-03T09:31:38.896Z,1003.89
2022-09-03T09:32:41.055Z,1003.80
2022-09-03T09:33:43.177Z,1003.87
2022-09-03T09:34:48.651Z,1003.83
2022-09-03T09:35:47.585Z,1003.87
2022-09-03T09:36:48.571Z,1003.79
2022-09-03T09:37:50.799Z,1003.82
2022-09-03T09:38:52.917Z,1003.82
2022-09-03T09:39:55.195Z,1003.79
2022-09-03T09:40:56.236Z,1003.79
2022-09-03T09:41:58.414Z,1003.81
2022-09-03T09:42:59.401Z,1003.77
2022-09-03T09:44:01.592Z,1003.77
2022-09-03T09:45:03.728Z,1003.77
2022-09-03T09:46:05.878Z,1003.76
2022-09-03T09:47:08.044Z,1003.77
2022-09-03T09:48:10.182Z,1003.74
2022-09-03T09:49:12.417Z,1003.74
2022-09-03T09:50:24.820Z,1003.72
2022-09-03T09:51:15.618Z,1003.71
2022-09-03T09:52:16.673Z,1003.70
2022-09-03T09:53:18.761Z,1003.72
2022-09-03T09:54:20.883Z,1003.71
2022-09-03T09:55:23.019Z,1003.75
2022-09-03T09:56:25.143Z,1003.74
2022-09-03T09:57:26.242Z,1003.73
2022-09-03T09:58:28.464Z,1003.78
2022-09-03T09:59:29.459Z,1003.73
2022-09-03T10:00:30.665Z,1003.75
2022-09-03T10:01:32.843Z,1003.72
2022-09-03T10:02:34.089Z,1003.68
2022-09-03T10:03:35.322Z,1003.70
2022-09-03T10:04:36.339Z,1003.68
2022-09-03T10:05:38.499Z,1003.66
2022-09-03T10:06:40.685Z,1003.67
2022-09-03T10:07:41.658Z,1003.68
2022-09-03T10:08:43.749Z,1003.63
2022-09-03T10:09:45.869Z,1003.62
2022-09-03T10:10:47.294Z,1003.60
2022-09-03T10:11:49.422Z,1003.64
2022-09-03T10:12:50.571Z,1003.59
2022-09-03T10:13:51.888Z,1003.62
2022-09-03T10:14:54.015Z,1003.64
2022-09-03T10:15:56.199Z,1003.67
2022-09-03T10:16:57.195Z,1003.70
2022-09-03T10:17:59.340Z,1003.61
2022-09-03T10:19:01.483Z,1003.69
2022-09-03T10:20:03.575Z,1003.67
2022-09-03T10:21:04.824Z,1003.64
2022-09-03T10:22:06.982Z,1003.66
2022-09-03T10:23:09.066Z,1003.66
2022-09-03T10:24:11.193Z,1003.67
2022-09-03T10:25:13.356Z,1003.63
2022-09-03T10:26:15.490Z,1003.61
2022-09-03T10:27:17.693Z,1003.65
2022-09-03T10:28:19.896Z,1003.63
2022-09-03T10:29:20.882Z,1003.57
2022-09-03T10:30:23.027Z,1003.52
2022-09-03T10:31:25.229Z,1003.59
2022-09-03T10:32:27.424Z,1003.53
2022-09-03T10:33:28.478Z,1003.51
2022-09-03T10:34:29.515Z,1003.28
2022-09-03T10:35:31.634Z,1003.44
2022-09-03T10:36:33.772Z,1003.52
2022-09-03T10:37:35.944Z,1003.44
2022-09-03T10:38:38.074Z,1003.49
2022-09-03T10:39:43.298Z,1003.52
2022-09-03T10:40:42.128Z,1003.48
2022-09-03T10:41:44.214Z,1003.47
2022-09-03T10:42:45.473Z,1003.46
2022-09-03T10:43:47.590Z,1003.48
2022-09-03T10:44:55.881Z,1003.53
2022-09-03T10:45:51.166Z,1003.54
2022-09-03T10:46:53.429Z,1003.53
2022-09-03T10:47:54.756Z,1003.52
2022-09-03T10:48:55.930Z,1003.49
2022-09-03T10:49:58.059Z,1003.53
2022-09-03T10:51:00.194Z,1003.48
2022-09-03T10:52:02.397Z,1003.45
2022-09-03T10:53:03.369Z,1003.44
2022-09-03T10:54:05.581Z,1003.44
2022-09-03T10:55:06.546Z,1003.45
2022-09-03T10:56:08.669Z,1003.50
2022-09-03T10:57:10.793Z,1003.49
2022-09-03T10:58:12.913Z,1003.53
2022-09-03T10:59:15.050Z,1003.50
2022-09-03T11:00:17.186Z,1003.25
2022-09-03T11:01:19.357Z,1003.44
2022-09-03T11:02:21.787Z,1003.55
2022-09-03T11:03:28.850Z,1003.30
2022-09-03T11:04:24.100Z,1003.36
2022-09-03T11:05:26.293Z,1003.33
2022-09-03T11:06:27.450Z,1003.13
2022-09-03T11:07:29.583Z,1003.35
2022-09-03T11:08:30.537Z,1003.41
2022-09-03T11:09:32.665Z,1003.46
2022-09-03T11:10:34.825Z,1003.43
2022-09-03T11:11:36.951Z,1003.38
2022-09-03T11:12:39.073Z,1003.39
2022-09-03T11:13:41.156Z,1003.33
2022-09-03T11:14:43.294Z,1003.35
2022-09-03T11:15:45.458Z,1003.29
2022-09-03T11:16:46.449Z,1003.35
2022-09-03T11:17:48.590Z,1003.33
2022-09-03T11:18:50.718Z,1003.34
2022-09-03T11:19:52.918Z,1003.36
2022-09-03T11:20:54.536Z,1003.29
2022-09-03T11:21:56.754Z,1003.27
2022-09-03T11:22:58.877Z,1003.31
2022-09-03T11:24:00.994Z,1003.25
2022-09-03T11:25:02.325Z,1003.23
2022-09-03T11:26:03.389Z,1003.19
2022-09-03T11:27:05.510Z,1003.21
2022-09-03T11:28:07.639Z,1003.20
2022-09-03T11:29:09.796Z,1003.25
2022-09-03T11:30:11.951Z,1003.19
2022-09-03T11:31:14.121Z,1003.15
2022-09-03T11:32:16.261Z,1003.20
2022-09-03T11:33:18.389Z,1003.17
2022-09-03T11:34:23.626Z,1003.16
2022-09-03T11:35:22.848Z,1003.15
2022-09-03T11:36:23.815Z,1003.21
2022-09-03T11:37:24.810Z,1003.21
2022-09-03T11:38:26.933Z,1003.21
2022-09-03T11:39:29.095Z,1003.22
2022-09-03T11:40:31.326Z,1003.23
2022-09-03T11:41:32.249Z,1003.25
2022-09-03T11:42:33.282Z,1003.21
2022-09-03T11:43:35.404Z,1003.22
2022-09-03T11:44:37.534Z,1003.20
2022-09-03T11:45:39.880Z,1003.16
2022-09-03T11:46:40.881Z,1003.13
2022-09-03T11:47:41.841Z,1003.11
2022-09-03T11:48:43.982Z,1003.16
2022-09-03T11:49:46.123Z,1003.10
2022-09-03T11:50:48.254Z,1003.03
2022-09-03T11:51:49.453Z,1003.13
2022-09-03T11:52:51.785Z,1003.11
2022-09-03T11:53:52.764Z,1003.05
2022-09-03T11:54:54.897Z,1003.15
2022-09-03T11:55:57.042Z,1003.18
2022-09-03T11:56:59.159Z,1003.17
2022-09-03T11:58:07.353Z,1003.12
2022-09-03T11:59:02.745Z,1003.13
2022-09-03T12:00:04.894Z,1003.14
2022-09-03T12:01:05.863Z,1003.07
2022-09-03T12:02:06.850Z,1003.06
2022-09-03T12:03:09.084Z,1003.02
2022-09-03T12:04:10.167Z,1002.98
2022-09-03T12:05:12.307Z,1002.94
2022-09-03T12:06:14.476Z,1002.90
2022-09-03T12:07:17.495Z,1002.90
2022-09-03T12:08:18.802Z,1002.86
2022-09-03T12:09:19.979Z,1002.89
2022-09-03T12:10:22.274Z,1002.88
2022-09-03T12:11:23.228Z,1002.88
2022-09-03T12:12:25.362Z,1002.81
2022-09-03T12:13:27.569Z,1002.75
2022-09-03T12:14:29.741Z,1002.77
2022-09-03T12:15:31.951Z,1002.79
2022-09-03T12:16:34.166Z,1002.79
2022-09-03T12:17:36.408Z,1002.73
2022-09-03T12:18:43.436Z,1002.75
2022-09-03T12:19:38.613Z,1002.76
2022-09-03T12:20:40.923Z,1002.72
2022-09-03T12:21:43.130Z,1002.74
2022-09-03T12:22:45.568Z,1002.71
2022-09-03T12:23:46.574Z,1002.66
2022-09-03T12:24:48.669Z,1002.67
2022-09-03T12:25:50.836Z,1002.68
2022-09-03T12:26:52.925Z,1002.76
2022-09-03T12:27:55.104Z,1002.66
2022-09-03T12:28:57.372Z,1002.67
2022-09-03T12:29:59.525Z,1002.61
2022-09-03T12:31:01.914Z,1002.59
2022-09-03T12:32:02.929Z,1002.61
2022-09-03T12:33:05.057Z,1002.57
2022-09-03T12:34:07.188Z,1002.48
2022-09-03T12:35:09.385Z,1002.45
2022-09-03T12:36:11.509Z,1002.37
2022-09-03T12:37:13.667Z,1002.39
2022-09-03T12:38:18.729Z,1002.35
2022-09-03T12:39:17.859Z,1002.34
2022-09-03T12:40:19.092Z,1002.41
2022-09-03T12:41:23.636Z,1002.43
2022-09-03T12:42:23.533Z,1002.44
2022-09-03T12:43:42.399Z,1002.44
2022-09-03T12:44:27.029Z,1002.50
2022-09-03T12:46:09.747Z,1002.46
2022-09-03T12:46:33.433Z,1002.47
2022-09-03T12:47:36.435Z,1002.44
2022-09-03T12:48:32.968Z,1002.42
2022-09-03T12:49:34.029Z,1002.42
2022-09-03T12:50:41.592Z,1002.36
2022-09-03T12:51:57.413Z,1002.31
2022-09-03T12:52:39.719Z,1002.30
2022-09-03T12:53:40.672Z,1002.26
2022-09-03T12:54:42.827Z,1002.28
2022-09-03T12:55:44.431Z,1002.26
2022-09-03T12:56:46.551Z,1002.29
2022-09-03T12:57:47.579Z,1002.30
2022-09-03T12:58:49.901Z,1002.21
2022-09-03T12:59:50.913Z,1002.25
2022-09-03T13:00:53.063Z,1002.18
2022-09-03T13:01:55.397Z,1002.13
2022-09-03T13:02:57.578Z,1002.16
2022-09-03T13:03:58.891Z,1002.12
2022-09-03T13:05:01.091Z,1002.14
2022-09-03T13:06:08.325Z,1002.21
2022-09-03T13:07:03.565Z,1002.22
2022-09-03T13:08:05.731Z,1002.24
2022-09-03T13:09:07.861Z,1002.25
2022-09-03T13:10:08.891Z,1002.22
2022-09-03T13:11:17.308Z,1002.17
2022-09-03T13:12:12.546Z,1002.19
2022-09-03T13:13:14.738Z,1002.16
2022-09-03T13:14:16.871Z,1002.14
2022-09-03T13:15:18.993Z,1002.11
2022-09-03T13:16:21.226Z,1002.15
2022-09-03T13:17:22.207Z,1002.07
2022-09-03T13:18:24.428Z,1002.10
2022-09-03T13:19:25.386Z,1002.08
2022-09-03T13:20:26.379Z,1002.09
2022-09-03T13:21:27.411Z,1002.13
2022-09-03T13:22:29.525Z,1002.09
2022-09-03T13:23:30.480Z,1002.12
2022-09-03T13:24:31.442Z,1002.05
2022-09-03T13:25:33.620Z,1002.14
2022-09-03T13:26:35.353Z,1002.06
2022-09-03T13:27:37.476Z,1001.96
2022-09-03T13:28:39.613Z,1001.99
2022-09-03T13:29:41.758Z,1002.08
2022-09-03T13:30:43.971Z,1002.04
2022-09-03T13:31:46.112Z,1002.04
2022-09-03T13:32:47.125Z,1002.02
2022-09-03T13:33:48.322Z,1002.00
2022-09-03T13:34:50.594Z,1001.96
2022-09-03T13:35:51.513Z,1001.92
2022-09-03T13:36:53.630Z,1001.86
2022-09-03T13:37:55.773Z,1001.85
2022-09-03T13:38:56.997Z,1001.89
2022-09-03T13:39:59.376Z,1001.84
2022-09-03T13:41:00.351Z,1001.88
2022-09-03T13:42:02.449Z,1001.87
2022-09-03T13:43:04.574Z,1001.83
2022-09-03T13:44:06.117Z,1001.83
2022-09-03T13:45:08.261Z,1001.86
2022-09-03T13:46:10.747Z,1001.87
2022-09-03T13:47:11.732Z,1001.86
2022-09-03T13:48:12.914Z,1001.83
2022-09-03T13:49:15.040Z,1001.83
2022-09-03T13:50:17.409Z,1001.87
2022-09-03T13:51:18.365Z,1001.78
2022-09-03T13:52:19.683Z,1001.87
2022-09-03T13:53:26.923Z,1001.88
2022-09-03T13:54:36.576Z,1001.83
2022-09-03T13:55:24.284Z,1001.82
2022-09-03T13:56:25.275Z,1001.86
2022-09-03T13:57:27.602Z,1001.82
2022-09-03T13:58:28.862Z,1001.87
2022-09-03T13:59:30.957Z,1001.77
2022-09-03T14:00:33.080Z,1001.81
2022-09-03T14:01:34.334Z,1001.74
2022-09-03T14:02:36.236Z,1001.74
2022-09-03T14:03:38.542Z,1001.72
2022-09-03T14:04:40.157Z,1001.75
2022-09-03T14:05:41.340Z,1001.73
2022-09-03T14:06:49.512Z,1001.72
2022-09-03T14:07:44.626Z,1001.70
2022-09-03T14:08:46.813Z,1001.73
2022-09-03T14:09:48.941Z,1001.71
2022-09-03T14:10:50.936Z,1001.73
2022-09-03T14:11:52.190Z,1001.73
2022-09-03T14:12:54.309Z,1001.68
2022-09-03T14:13:56.440Z,1001.63
2022-09-03T14:14:57.683Z,1001.70
2022-09-03T14:15:58.707Z,1001.73
2022-09-03T14:17:00.083Z,1001.76
2022-09-03T14:18:02.168Z,1001.68
2022-09-03T14:19:04.493Z,1001.73
2022-09-03T14:20:06.583Z,1001.74
2022-09-03T14:21:08.708Z,1001.73
2022-09-03T14:22:09.715Z,1001.77
2022-09-03T14:23:11.384Z,1001.73
2022-09-03T14:24:19.562Z,1001.73
2022-09-03T14:25:14.682Z,1001.69
2022-09-03T14:26:17.017Z,1001.69
2022-09-03T14:27:17.979Z,1001.60
2022-09-03T14:28:20.113Z,1001.67
2022-09-03T14:29:22.367Z,1001.70
2022-09-03T14:30:23.346Z,1001.72
2022-09-03T14:31:25.498Z,1001.70
2022-09-03T14:32:26.899Z,1001.67
2022-09-03T14:33:29.048Z,1001.71
2022-09-03T14:34:31.355Z,1001.66
2022-09-03T14:35:32.677Z,1001.63
2022-09-03T14:36:34.006Z,1001.64
2022-09-03T14:37:36.127Z,1001.67
2022-09-03T14:38:37.118Z,1001.64
2022-09-03T14:39:38.119Z,1001.59
2022-09-03T14:40:39.318Z,1001.60
2022-09-03T14:41:40.699Z,1001.57
2022-09-03T14:42:48.591Z,1001.55
2022-09-03T14:43:43.949Z,1001.59
2022-09-03T14:44:46.065Z,1001.55
2022-09-03T14:45:48.243Z,1001.61
2022-09-03T14:46:50.413Z,1001.58
2022-09-03T14:47:52.775Z,1001.59
2022-09-03T14:48:54.905Z,1001.63
2022-09-03T14:49:57.030Z,1001.64
2022-09-03T14:50:58.266Z,1001.66
2022-09-03T14:52:05.993Z,1001.68
2022-09-03T14:53:01.339Z,1001.65
2022-09-03T14:54:02.349Z,1001.66
2022-09-03T14:55:04.641Z,1001.70
2022-09-03T14:56:05.805Z,1001.68
2022-09-03T14:57:12.216Z,1001.62
2022-09-03T14:58:09.191Z,1001.65
2022-09-03T14:59:11.387Z,1001.66
2022-09-03T15:00:19.964Z,1001.67
2022-09-03T15:01:14.730Z,1001.72
2022-09-03T15:02:15.825Z,1001.73
2022-09-03T15:03:22.969Z,1001.69
2022-09-03T15:04:18.572Z,1001.72
2022-09-03T15:05:21.031Z,1001.73
2022-09-03T15:06:28.079Z,1001.72
2022-09-03T15:07:24.903Z,1001.69
2022-09-03T15:08:24.937Z,1001.70
2022-09-03T15:09:27.090Z,1001.68
2022-09-03T15:10:29.216Z,1001.68
2022-09-03T15:11:31.379Z,1001.71
2022-09-03T15:12:33.500Z,1001.71
2022-09-03T15:13:35.633Z,1001.72
2022-09-03T15:14:37.282Z,1001.68
2022-09-03T15:15:38.262Z,1001.72
2022-09-03T15:16:39.363Z,1001.71
2022-09-03T15:17:40.736Z,1001.65
2022-09-03T15:18:42.962Z,1001.61
2022-09-03T15:19:44.331Z,1001.62
2022-09-03T15:20:46.451Z,1001.60
2022-09-03T15:21:48.662Z,1001.61
2022-09-03T15:22:50.275Z,1001.61
2022-09-03T15:23:51.256Z,1001.61
2022-09-03T15:24:53.375Z,1001.57
2022-09-03T15:25:55.515Z,1001.60
2022-09-03T15:26:56.468Z,1001.65
2022-09-03T15:27:57.419Z,1001.63
2022-09-03T15:28:58.386Z,1001.58
2022-09-03T15:29:59.676Z,1001.59
2022-09-03T15:31:00.672Z,1001.57
2022-09-03T15:32:03.061Z,1001.63
2022-09-03T15:33:04.052Z,1001.58
2022-09-03T15:34:11.308Z,1001.60
2022-09-03T15:35:07.586Z,1001.65
2022-09-03T15:36:09.738Z,1001.60
2022-09-03T15:37:17.912Z,1001.59
2022-09-03T15:38:13.092Z,1001.62
2022-09-03T15:39:15.227Z,1001.61
2022-09-03T15:40:17.644Z,1001.60
2022-09-03T15:41:18.614Z,1001.60
2022-09-03T15:42:20.719Z,1001.60
2022-09-03T15:43:22.930Z,1001.56
2022-09-03T15:44:25.098Z,1001.63
2022-09-03T15:45:27.460Z,1001.54
2022-09-03T15:46:28.451Z,1001.55
2022-09-03T15:47:43.135Z,1001.55
2022-09-03T15:48:33.709Z,1001.52
2022-09-03T15:49:34.791Z,1001.56
2022-09-03T15:50:42.047Z,1001.56
2022-09-03T15:51:37.279Z,1001.53
2022-09-03T15:52:39.403Z,1001.58
2022-09-03T15:53:41.769Z,1001.56
2022-09-03T15:54:43.964Z,1001.56
2022-09-03T15:55:46.153Z,1001.59
2022-09-03T15:56:47.425Z,1001.53
2022-09-03T15:57:49.512Z,1001.57
2022-09-03T15:58:51.132Z,1001.55
2022-09-03T15:59:53.399Z,1001.52
2022-09-03T16:00:54.402Z,1001.54
2022-09-03T16:01:55.641Z,1001.52
2022-09-03T16:02:57.777Z,1001.57
2022-09-03T16:04:00.046Z,1001.59
2022-09-03T16:05:01.119Z,1001.60
2022-09-03T16:06:02.334Z,1001.58
2022-09-03T16:07:04.462Z,1001.58
2022-09-03T16:08:06.251Z,1001.56
2022-09-03T16:09:08.371Z,1001.57
2022-09-03T16:10:26.317Z,1001.58
2022-09-03T16:11:12.756Z,1001.65
2022-09-03T16:12:13.722Z,1001.60
2022-09-03T16:13:15.108Z,1001.60
2022-09-03T16:14:16.076Z,1001.59
2022-09-03T16:15:17.444Z,1001.58
2022-09-03T16:16:18.426Z,1001.52
2022-09-03T16:17:19.846Z,1001.58
2022-09-03T16:18:20.867Z,1001.62
2022-09-03T16:19:23.013Z,1001.60
2022-09-03T16:20:23.960Z,1001.62
2022-09-03T16:21:24.947Z,1001.61
2022-09-03T16:22:26.145Z,1001.62
2022-09-03T16:23:27.349Z,1001.68
2022-09-03T16:24:29.471Z,1001.67
2022-09-03T16:25:31.619Z,1001.67
2022-09-03T16:26:32.810Z,1001.67
2022-09-03T16:27:40.081Z,1001.67
2022-09-03T16:28:35.201Z,1001.68
2022-09-03T16:29:37.385Z,1001.70
2022-09-03T16:30:39.514Z,1001.68
2022-09-03T16:31:41.906Z,1001.70
2022-09-03T16:32:42.938Z,1001.70
2022-09-03T16:33:45.169Z,1001.69
2022-09-03T16:34:46.196Z,1001.68
2022-09-03T16:35:48.434Z,1001.72
2022-09-03T16:36:49.726Z,1001.63
2022-09-03T16:37:51.917Z,1001.68
2022-09-03T16:38:54.038Z,1001.64
2022-09-03T16:39:56.354Z,1001.63
2022-09-03T16:40:57.365Z,1001.61
2022-09-03T16:41:59.500Z,1001.59
2022-09-03T16:43:01.630Z,1001.59
2022-09-03T16:44:03.753Z,1001.57
2022-09-03T16:45:05.872Z,1001.60
2022-09-03T16:46:08.099Z,1001.61
2022-09-03T16:47:09.148Z,1001.69
2022-09-03T16:48:11.295Z,1001.59
2022-09-03T16:49:12.918Z,1001.59